sensor_id;sensor_type;location;lat;lon;timestamp;temperature;humidity
46319;DHT22;32042;50.916;2.926;2023-12-20T16:57:05;9.70;99.90
46319;DHT22;32042;50.916;2.926;2023-12-20T16:59:31;9.50;99.90
46319;DHT22;32042;50.916;2.926;2023-12-20T17:01:57;9.40;99.90
46319;DHT22;32042;50.916;2.926;2023-12-20T17:04:23;9.40;99.90
46319;DHT22;32042;50.916;2.926;2023-12-20T17:06:50;9.40;99.90
46319;DHT22;32042;50.916;2.926;2023-12-20T17:09:16;9.40;99.90
46319;DHT22;32042;50.916;2.926;2023-12-20T17:11:42;9.40;99.90
46319;DHT22;32042;50.916;2.926;2023-12-20T17:14:08;9.40;99.90
46319;DHT22;32042;50.916;2.926;2023-12-20T17:16:36;9.40;99.90
46319;DHT22;32042;50.916;2.926;2023-12-20T17:19:02;9.40;99.90
46319;DHT22;32042;50.916;2.926;2023-12-20T17:21:30;9.40;99.90
46319;DHT22;32042;50.916;2.926;2023-12-20T17:23:56;9.40;99.90
46319;DHT22;32042;50.916;2.926;2023-12-20T17:26:22;9.40;99.90
46319;DHT22;32042;50.916;2.926;2023-12-20T17:28:47;9.40;99.90
46319;DHT22;32042;50.916;2.926;2023-12-20T17:31:13;9.40;99.90
46319;DHT22;32042;50.916;2.926;2023-12-20T17:33:39;9.40;99.90
46319;DHT22;32042;50.916;2.926;2023-12-20T17:36:05;9.40;99.90
46319;DHT22;32042;50.916;2.926;2023-12-20T17:38:32;9.40;99.90
46319;DHT22;32042;50.916;2.926;2023-12-20T17:41:02;9.50;99.90
46319;DHT22;32042;50.916;2.926;2023-12-20T17:43:27;9.50;99.90
46319;DHT22;32042;50.916;2.926;2023-12-20T17:45:53;9.50;99.90
46319;DHT22;32042;50.916;2.926;2023-12-20T17:48:19;9.50;99.90
46319;DHT22;32042;50.916;2.926;2023-12-20T17:50:47;9.50;99.90
46319;DHT22;32042;50.916;2.926;2023-12-20T17:53:13;9.40;99.90
46319;DHT22;32042;50.916;2.926;2023-12-20T17:55:39;9.50;99.90
46319;DHT22;32042;50.916;2.926;2023-12-20T17:58:05;9.50;99.90
46319;DHT22;32042;50.916;2.926;2023-12-20T18:00:34;9.50;99.90
46319;DHT22;32042;50.916;2.926;2023-12-20T18:03:01;9.50;99.90
46319;DHT22;32042;50.916;2.926;2023-12-20T18:05:28;9.50;99.90
46319;DHT22;32042;50.916;2.926;2023-12-20T18:07:54;9.60;99.90
46319;DHT22;32042;50.916;2.926;2023-12-20T18:10:20;9.50;99.90
46319;DHT22;32042;50.916;2.926;2023-12-20T18:12:46;9.60;99.90
46319;DHT22;32042;50.916;2.926;2023-12-20T18:15:13;9.60;99.90
46319;DHT22;32042;50.916;2.926;2023-12-20T18:17:39;9.60;99.90
46319;DHT22;32042;50.916;2.926;2023-12-20T18:20:05;9.60;99.90
46319;DHT22;32042;50.916;2.926;2023-12-20T18:22:31;9.60;99.90
46319;DHT22;32042;50.916;2.926;2023-12-20T18:24:57;9.70;99.90
46319;DHT22;32042;50.916;2.926;2023-12-20T18:27:23;9.70;99.90
46319;DHT22;32042;50.916;2.926;2023-12-20T18:29:51;9.70;99.90
46319;DHT22;32042;50.916;2.926;2023-12-20T18:32:17;9.70;99.90
46319;DHT22;32042;50.916;2.926;2023-12-20T18:34:42;9.70;99.90
46319;DHT22;32042;50.916;2.926;2023-12-20T18:37:08;9.70;99.90
46319;DHT22;32042;50.916;2.926;2023-12-20T18:39:37;9.80;99.90
46319;DHT22;32042;50.916;2.926;2023-12-20T18:42:06;9.80;99.90
46319;DHT22;32042;50.916;2.926;2023-12-20T18:44:35;9.80;99.90
46319;DHT22;32042;50.916;2.926;2023-12-20T18:47:01;9.90;99.90
46319;DHT22;32042;50.916;2.926;2023-12-20T18:49:28;9.90;99.90
46319;DHT22;32042;50.916;2.926;2023-12-20T18:51:54;9.90;99.90
46319;DHT22;32042;50.916;2.926;2023-12-20T18:54:20;9.90;99.90
46319;DHT22;32042;50.916;2.926;2023-12-20T18:56:47;9.90;99.90
46319;DHT22;32042;50.916;2.926;2023-12-20T18:59:15;9.90;99.90
46319;DHT22;32042;50.916;2.926;2023-12-20T19:01:45;10.00;99.90
46319;DHT22;32042;50.916;2.926;2023-12-20T19:04:12;10.00;99.90
46319;DHT22;32042;50.916;2.926;2023-12-20T19:06:42;10.00;99.90
46319;DHT22;32042;50.916;2.926;2023-12-20T19:09:08;10.00;99.90
46319;DHT22;32042;50.916;2.926;2023-12-20T19:11:33;10.00;99.90
46319;DHT22;32042;50.916;2.926;2023-12-20T19:14:01;10.00;99.90
46319;DHT22;32042;50.916;2.926;2023-12-20T19:16:26;10.00;99.90
46319;DHT22;32042;50.916;2.926;2023-12-20T19:18:52;10.00;99.90
46319;DHT22;32042;50.916;2.926;2023-12-20T19:21:18;10.00;99.90
46319;DHT22;32042;50.916;2.926;2023-12-20T19:23:45;10.00;99.90
46319;DHT22;32042;50.916;2.926;2023-12-20T19:26:11;10.00;99.90
46319;DHT22;32042;50.916;2.926;2023-12-20T19:28:38;10.00;99.90
46319;DHT22;32042;50.916;2.926;2023-12-20T19:31:05;10.00;99.90
46319;DHT22;32042;50.916;2.926;2023-12-20T19:33:37;10.00;99.90
46319;DHT22;32042;50.916;2.926;2023-12-20T19:36:05;10.00;99.90
46319;DHT22;32042;50.916;2.926;2023-12-20T19:38:31;10.00;99.90
46319;DHT22;32042;50.916;2.926;2023-12-20T19:40:57;10.00;99.90
46319;DHT22;32042;50.916;2.926;2023-12-20T19:43:23;10.00;99.90
46319;DHT22;32042;50.916;2.926;2023-12-20T19:45:49;10.00;99.90
46319;DHT22;32042;50.916;2.926;2023-12-20T19:48:14;10.00;99.90
46319;DHT22;32042;50.916;2.926;2023-12-20T19:50:40;10.00;99.90
46319;DHT22;32042;50.916;2.926;2023-12-20T19:53:06;10.00;99.90
46319;DHT22;32042;50.916;2.926;2023-12-20T19:55:32;10.00;99.90
46319;DHT22;32042;50.916;2.926;2023-12-20T19:57:58;10.00;99.90
46319;DHT22;32042;50.916;2.926;2023-12-20T20:00:25;10.00;99.90
46319;DHT22;32042;50.916;2.926;2023-12-20T20:02:50;10.00;99.90
46319;DHT22;32042;50.916;2.926;2023-12-20T20:05:17;10.00;99.90
46319;DHT22;32042;50.916;2.926;2023-12-20T20:07:43;10.00;99.90
46319;DHT22;32042;50.916;2.926;2023-12-20T20:10:08;10.00;99.90
46319;DHT22;32042;50.916;2.926;2023-12-20T20:12:34;10.00;99.90
46319;DHT22;32042;50.916;2.926;2023-12-20T20:15:01;10.00;99.90
46319;DHT22;32042;50.916;2.926;2023-12-20T20:17:27;10.00;99.90
46319;DHT22;32042;50.916;2.926;2023-12-20T20:19:52;10.00;99.90
46319;DHT22;32042;50.916;2.926;2023-12-20T20:22:18;10.00;99.90
46319;DHT22;32042;50.916;2.926;2023-12-20T20:24:44;10.00;99.90
46319;DHT22;32042;50.916;2.926;2023-12-20T20:27:12;10.00;99.90
46319;DHT22;32042;50.916;2.926;2023-12-20T20:29:37;10.00;99.90
46319;DHT22;32042;50.916;2.926;2023-12-20T20:32:04;10.00;99.90
46319;DHT22;32042;50.916;2.926;2023-12-20T20:34:30;10.00;99.90
46319;DHT22;32042;50.916;2.926;2023-12-20T20:36:56;9.90;99.90
46319;DHT22;32042;50.916;2.926;2023-12-20T20:39:22;10.00;99.90
46319;DHT22;32042;50.916;2.926;2023-12-20T20:41:48;9.90;99.90
46319;DHT22;32042;50.916;2.926;2023-12-20T20:44:14;9.90;99.90
46319;DHT22;32042;50.916;2.926;2023-12-20T20:46:40;10.00;99.90
46319;DHT22;32042;50.916;2.926;2023-12-20T20:49:05;10.00;99.90
46319;DHT22;32042;50.916;2.926;2023-12-20T20:51:32;10.00;99.90
46319;DHT22;32042;50.916;2.926;2023-12-20T20:53:57;10.00;99.90
46319;DHT22;32042;50.916;2.926;2023-12-20T20:56:23;10.00;99.90
46319;DHT22;32042;50.916;2.926;2023-12-20T20:58:49;10.00;99.90
46319;DHT22;32042;50.916;2.926;2023-12-20T21:01:18;10.00;99.90
46319;DHT22;32042;50.916;2.926;2023-12-20T21:03:44;10.00;99.90
46319;DHT22;32042;50.916;2.926;2023-12-20T21:06:11;10.00;99.90
46319;DHT22;32042;50.916;2.926;2023-12-20T21:08:38;10.00;99.90
46319;DHT22;32042;50.916;2.926;2023-12-20T21:11:05;9.90;99.90
46319;DHT22;32042;50.916;2.926;2023-12-20T21:13:32;10.00;99.90
46319;DHT22;32042;50.916;2.926;2023-12-20T21:15:58;10.00;99.90
46319;DHT22;32042;50.916;2.926;2023-12-20T21:18:25;9.90;99.90
46319;DHT22;32042;50.916;2.926;2023-12-20T21:20:53;9.90;99.90
46319;DHT22;32042;50.916;2.926;2023-12-20T21:23:20;10.00;99.90
46319;DHT22;32042;50.916;2.926;2023-12-20T21:25:48;10.00;99.90
46319;DHT22;32042;50.916;2.926;2023-12-20T21:28:14;10.00;99.90
46319;DHT22;32042;50.916;2.926;2023-12-20T21:30:40;10.00;99.90
46319;DHT22;32042;50.916;2.926;2023-12-20T21:33:05;10.00;99.90
46319;DHT22;32042;50.916;2.926;2023-12-20T21:35:31;10.00;99.90
46319;DHT22;32042;50.916;2.926;2023-12-20T21:37:57;9.90;99.90
46319;DHT22;32042;50.916;2.926;2023-12-20T21:40:23;9.90;99.90
46319;DHT22;32042;50.916;2.926;2023-12-20T21:42:49;9.90;99.90
46319;DHT22;32042;50.916;2.926;2023-12-20T21:45:16;9.90;99.90
46319;DHT22;32042;50.916;2.926;2023-12-20T21:47:42;9.90;99.90
46319;DHT22;32042;50.916;2.926;2023-12-20T21:50:08;9.90;99.90
46319;DHT22;32042;50.916;2.926;2023-12-20T21:52:34;9.90;99.90
46319;DHT22;32042;50.916;2.926;2023-12-20T21:55:00;9.90;99.90
46319;DHT22;32042;50.916;2.926;2023-12-20T21:57:26;9.90;99.90
46319;DHT22;32042;50.916;2.926;2023-12-20T21:59:52;9.80;99.90
46319;DHT22;32042;50.916;2.926;2023-12-20T22:02:18;9.80;99.90
46319;DHT22;32042;50.916;2.926;2023-12-20T22:04:44;9.80;99.90
46319;DHT22;32042;50.916;2.926;2023-12-20T22:07:11;9.80;99.90
46319;DHT22;32042;50.916;2.926;2023-12-20T22:09:36;9.80;99.90
46319;DHT22;32042;50.916;2.926;2023-12-20T22:12:02;9.80;99.90
46319;DHT22;32042;50.916;2.926;2023-12-20T22:14:28;9.80;99.90
46319;DHT22;32042;50.916;2.926;2023-12-20T22:16:56;9.80;99.90
46319;DHT22;32042;50.916;2.926;2023-12-20T22:19:22;9.80;99.90
46319;DHT22;32042;50.916;2.926;2023-12-20T22:21:47;9.80;99.90
46319;DHT22;32042;50.916;2.926;2023-12-20T22:24:13;9.80;99.90
46319;DHT22;32042;50.916;2.926;2023-12-20T22:26:39;9.80;99.90
46319;DHT22;32042;50.916;2.926;2023-12-20T22:29:04;9.80;99.90
46319;DHT22;32042;50.916;2.926;2023-12-20T22:31:30;9.80;99.90
46319;DHT22;32042;50.916;2.926;2023-12-20T22:33:56;9.80;99.90
46319;DHT22;32042;50.916;2.926;2023-12-20T22:36:22;9.80;99.90
46319;DHT22;32042;50.916;2.926;2023-12-20T22:38:47;9.90;99.90
46319;DHT22;32042;50.916;2.926;2023-12-20T22:41:15;9.90;99.90
46319;DHT22;32042;50.916;2.926;2023-12-20T22:43:40;9.90;99.90
46319;DHT22;32042;50.916;2.926;2023-12-20T22:46:07;9.90;99.90
46319;DHT22;32042;50.916;2.926;2023-12-20T22:48:34;9.90;99.90
46319;DHT22;32042;50.916;2.926;2023-12-20T22:51:00;9.90;99.90
46319;DHT22;32042;50.916;2.926;2023-12-20T22:53:26;9.90;99.90
46319;DHT22;32042;50.916;2.926;2023-12-20T22:55:51;10.00;99.90
46319;DHT22;32042;50.916;2.926;2023-12-20T22:58:17;10.00;99.90
46319;DHT22;32042;50.916;2.926;2023-12-20T23:00:43;10.00;99.90
46319;DHT22;32042;50.916;2.926;2023-12-20T23:03:09;10.00;99.90
46319;DHT22;32042;50.916;2.926;2023-12-20T23:05:36;10.00;99.90
46319;DHT22;32042;50.916;2.926;2023-12-20T23:08:02;10.00;99.90
46319;DHT22;32042;50.916;2.926;2023-12-20T23:10:28;10.10;99.90
46319;DHT22;32042;50.916;2.926;2023-12-20T23:12:58;10.10;99.90
46319;DHT22;32042;50.916;2.926;2023-12-20T23:15:24;10.10;99.90
46319;DHT22;32042;50.916;2.926;2023-12-20T23:17:50;10.10;99.90
46319;DHT22;32042;50.916;2.926;2023-12-20T23:20:18;10.10;99.90
46319;DHT22;32042;50.916;2.926;2023-12-20T23:22:44;10.10;99.90
46319;DHT22;32042;50.916;2.926;2023-12-20T23:25:10;10.20;99.90
46319;DHT22;32042;50.916;2.926;2023-12-20T23:27:36;10.20;99.90
46319;DHT22;32042;50.916;2.926;2023-12-20T23:30:02;10.20;99.90
46319;DHT22;32042;50.916;2.926;2023-12-20T23:32:28;10.20;99.90
46319;DHT22;32042;50.916;2.926;2023-12-20T23:34:53;10.20;99.90
46319;DHT22;32042;50.916;2.926;2023-12-20T23:37:19;10.20;99.90
46319;DHT22;32042;50.916;2.926;2023-12-20T23:39:45;10.20;99.90
46319;DHT22;32042;50.916;2.926;2023-12-20T23:42:12;10.20;99.90
46319;DHT22;32042;50.916;2.926;2023-12-20T23:44:40;10.20;99.90
46319;DHT22;32042;50.916;2.926;2023-12-20T23:47:06;10.20;99.90
46319;DHT22;32042;50.916;2.926;2023-12-20T23:49:31;10.20;99.90
46319;DHT22;32042;50.916;2.926;2023-12-20T23:51:57;10.20;99.90
46319;DHT22;32042;50.916;2.926;2023-12-20T23:54:23;10.20;99.90
46319;DHT22;32042;50.916;2.926;2023-12-20T23:56:48;10.20;99.90
46319;DHT22;32042;50.916;2.926;2023-12-20T23:59:14;10.20;99.90
